Pagrindinis puslapis
METAR-TAF:

METAR-TAF

Oro uostai :

Džajapura, Indonezija

platuma: 02-34-37S, ilguma: 140-30-58E, Aukštis: 88 m

Dabartinis oras

Ataskaita buvo paskelbta 19 minutes, ne 08:00 UTC
Vėjas 15 kt iš Vakarų
Temperatūra 30°C
Drėgmė 59%
Slėgis 1006 hPa
Matomumas 10 km arba daugiau
Mažai debesys ne aukštis 1300 ft

METAR: WAJJ 230800Z 27015KT 9999 FEW013 30/21 Q1006 NOSIG

Laikas: 15:19 (08:19 UTC)


TAF: trūkstamas

Orai ataskaitas ir orų prognozės (METAR, TAF).

turimą stotys yra geltonos ir raudonos taškus žemėlapyje.

Perkelti pele per norėdami pamatyti stoties vardą.

Tada spustelėkite, norėdami matyti oro stebėjimo ir prognozės.

Norėdami pakeisti žemėlapį: spustelėkite ant žalios mygtukų su juodo kryžiaus žemyn,; žalią mygtuką su brūkšneliu, jei norite nutolinti; arba žalių rodyklių gretimoms žemėlapius.


METAR-TAF: